Terminal Aerodrome Forecast
Issued by NWS Brownsville, TX

Home | Current Version | Previous Version | Text Only | Print | Product List | Glossary On
Versions: 1 2 3 4 5 6 7 8 9 10 11 12 13 14 15 16 17 18 19 20
000
FTUS44 KBRO 231100
TAFBRO
TAF
KBRO 231136Z 2312/2412 00000KT 1SM BR VV003
      TEMPO 2312/2314 1/4SM FG VV001
     FM231500 20005KT P6SM FEW005
     FM231630 24007KT P6SM SKC
     FM240000 16006KT P6SM SKC=

USA.gov is the U.S. government's official web portal to all federal, state and local government web resources and services.